sensor_id;sensor_type;location;lat;lon;timestamp;temperature;humidity
10459;DHT22;5277;48.722;8.736;2024-03-02T00:02:13;4.80;99.90
10459;DHT22;5277;48.722;8.736;2024-03-02T00:04:39;4.90;99.90
10459;DHT22;5277;48.722;8.736;2024-03-02T00:07:06;4.90;99.90
10459;DHT22;5277;48.722;8.736;2024-03-02T00:09:32;4.90;99.90
10459;DHT22;5277;48.722;8.736;2024-03-02T00:11:59;5.00;99.90
10459;DHT22;5277;48.722;8.736;2024-03-02T00:14:25;5.10;99.90
10459;DHT22;5277;48.722;8.736;2024-03-02T00:16:51;5.00;99.90
10459;DHT22;5277;48.722;8.736;2024-03-02T00:19:17;5.00;99.90
10459;DHT22;5277;48.722;8.736;2024-03-02T00:21:43;5.00;99.90
10459;DHT22;5277;48.722;8.736;2024-03-02T00:24:20;5.00;99.90
10459;DHT22;5277;48.722;8.736;2024-03-02T00:26:47;4.90;99.90
10459;DHT22;5277;48.722;8.736;2024-03-02T00:29:15;4.90;99.90
10459;DHT22;5277;48.722;8.736;2024-03-02T00:31:41;4.90;99.90
10459;DHT22;5277;48.722;8.736;2024-03-02T00:34:07;5.00;99.90
10459;DHT22;5277;48.722;8.736;2024-03-02T00:36:33;4.90;99.90
10459;DHT22;5277;48.722;8.736;2024-03-02T00:38:59;4.90;99.90
10459;DHT22;5277;48.722;8.736;2024-03-02T00:41:27;4.90;99.90
10459;DHT22;5277;48.722;8.736;2024-03-02T00:46:24;4.80;99.90
10459;DHT22;5277;48.722;8.736;2024-03-02T00:48:55;4.90;99.90
10459;DHT22;5277;48.722;8.736;2024-03-02T00:51:25;4.90;99.90
10459;DHT22;5277;48.722;8.736;2024-03-02T00:53:57;4.90;99.90
10459;DHT22;5277;48.722;8.736;2024-03-02T00:56:24;4.90;99.90
10459;DHT22;5277;48.722;8.736;2024-03-02T00:58:50;4.90;99.90
10459;DHT22;5277;48.722;8.736;2024-03-02T01:01:16;4.80;99.90
10459;DHT22;5277;48.722;8.736;2024-03-02T01:03:42;4.80;99.90
10459;DHT22;5277;48.722;8.736;2024-03-02T01:06:08;4.70;99.90
10459;DHT22;5277;48.722;8.736;2024-03-02T01:08:35;4.70;99.90
10459;DHT22;5277;48.722;8.736;2024-03-02T01:11:01;4.70;99.90
10459;DHT22;5277;48.722;8.736;2024-03-02T01:13:27;4.70;99.90
10459;DHT22;5277;48.722;8.736;2024-03-02T01:15:53;4.50;99.90
10459;DHT22;5277;48.722;8.736;2024-03-02T01:18:18;4.50;99.90
10459;DHT22;5277;48.722;8.736;2024-03-02T01:20:44;4.50;99.90
10459;DHT22;5277;48.722;8.736;2024-03-02T01:23:10;4.60;99.90
10459;DHT22;5277;48.722;8.736;2024-03-02T01:25:35;4.60;99.90
10459;DHT22;5277;48.722;8.736;2024-03-02T01:28:01;4.60;99.90
10459;DHT22;5277;48.722;8.736;2024-03-02T01:30:27;4.50;99.90
10459;DHT22;5277;48.722;8.736;2024-03-02T01:32:52;4.50;99.90
10459;DHT22;5277;48.722;8.736;2024-03-02T01:35:21;4.50;99.90
10459;DHT22;5277;48.722;8.736;2024-03-02T01:41:13;4.40;99.90
10459;DHT22;5277;48.722;8.736;2024-03-02T01:43:53;4.30;99.90
10459;DHT22;5277;48.722;8.736;2024-03-02T01:46:21;4.20;99.90
10459;DHT22;5277;48.722;8.736;2024-03-02T01:52:16;4.10;99.90
10459;DHT22;5277;48.722;8.736;2024-03-02T01:54:58;3.90;99.90
10459;DHT22;5277;48.722;8.736;2024-03-02T01:57:31;3.90;99.90
10459;DHT22;5277;48.722;8.736;2024-03-02T02:00:08;3.80;99.90
10459;DHT22;5277;48.722;8.736;2024-03-02T02:02:49;3.90;99.90
10459;DHT22;5277;48.722;8.736;2024-03-02T02:05:44;3.80;99.90
10459;DHT22;5277;48.722;8.736;2024-03-02T02:08:19;3.80;99.90
10459;DHT22;5277;48.722;8.736;2024-03-02T02:10:58;3.80;99.90
10459;DHT22;5277;48.722;8.736;2024-03-02T02:13:31;3.80;99.90
10459;DHT22;5277;48.722;8.736;2024-03-02T02:16:07;3.70;99.90
10459;DHT22;5277;48.722;8.736;2024-03-02T02:19:03;3.70;99.90
10459;DHT22;5277;48.722;8.736;2024-03-02T02:24:13;3.80;99.90
10459;DHT22;5277;48.722;8.736;2024-03-02T02:26:42;3.60;99.90
10459;DHT22;5277;48.722;8.736;2024-03-02T02:29:23;3.50;99.90
10459;DHT22;5277;48.722;8.736;2024-03-02T02:32:09;3.30;99.90
10459;DHT22;5277;48.722;8.736;2024-03-02T02:34:57;3.50;99.90
10459;DHT22;5277;48.722;8.736;2024-03-02T02:37:24;3.50;99.90
10459;DHT22;5277;48.722;8.736;2024-03-02T02:39:50;3.50;99.90
10459;DHT22;5277;48.722;8.736;2024-03-02T02:42:16;3.40;99.90
10459;DHT22;5277;48.722;8.736;2024-03-02T02:44:46;3.20;99.90
10459;DHT22;5277;48.722;8.736;2024-03-02T02:47:17;3.20;99.90
10459;DHT22;5277;48.722;8.736;2024-03-02T02:49:46;3.20;99.90
10459;DHT22;5277;48.722;8.736;2024-03-02T02:52:19;3.20;99.90
10459;DHT22;5277;48.722;8.736;2024-03-02T02:54:50;3.20;99.90
10459;DHT22;5277;48.722;8.736;2024-03-02T02:57:18;3.30;99.90
10459;DHT22;5277;48.722;8.736;2024-03-02T02:59:55;3.30;99.90
10459;DHT22;5277;48.722;8.736;2024-03-02T03:02:23;3.10;99.90
10459;DHT22;5277;48.722;8.736;2024-03-02T03:04:49;3.20;99.90
10459;DHT22;5277;48.722;8.736;2024-03-02T03:07:15;3.10;99.90
10459;DHT22;5277;48.722;8.736;2024-03-02T03:09:40;3.10;99.90
10459;DHT22;5277;48.722;8.736;2024-03-02T03:12:06;3.10;99.90
10459;DHT22;5277;48.722;8.736;2024-03-02T03:14:32;3.10;99.90
10459;DHT22;5277;48.722;8.736;2024-03-02T03:16:57;3.00;99.90
10459;DHT22;5277;48.722;8.736;2024-03-02T03:19:26;3.00;99.90
10459;DHT22;5277;48.722;8.736;2024-03-02T03:21:51;3.00;99.90
10459;DHT22;5277;48.722;8.736;2024-03-02T03:24:17;3.00;99.90
10459;DHT22;5277;48.722;8.736;2024-03-02T03:26:45;3.10;99.90
10459;DHT22;5277;48.722;8.736;2024-03-02T03:29:13;3.10;99.90
10459;DHT22;5277;48.722;8.736;2024-03-02T03:31:53;3.10;99.90
10459;DHT22;5277;48.722;8.736;2024-03-02T03:34:19;3.20;99.90
10459;DHT22;5277;48.722;8.736;2024-03-02T03:37:08;3.20;99.90
10459;DHT22;5277;48.722;8.736;2024-03-02T03:39:41;2.90;99.90
10459;DHT22;5277;48.722;8.736;2024-03-02T03:42:23;2.90;99.90
10459;DHT22;5277;48.722;8.736;2024-03-02T03:44:54;2.90;99.90
10459;DHT22;5277;48.722;8.736;2024-03-02T03:47:29;3.10;99.90
10459;DHT22;5277;48.722;8.736;2024-03-02T03:50:05;3.10;99.90
10459;DHT22;5277;48.722;8.736;2024-03-02T03:52:32;3.20;99.90
10459;DHT22;5277;48.722;8.736;2024-03-02T03:55:06;3.10;99.90
10459;DHT22;5277;48.722;8.736;2024-03-02T03:57:35;3.00;99.90
10459;DHT22;5277;48.722;8.736;2024-03-02T04:00:01;2.90;99.90
10459;DHT22;5277;48.722;8.736;2024-03-02T04:02:29;2.90;99.90
10459;DHT22;5277;48.722;8.736;2024-03-02T04:04:57;2.90;99.90
10459;DHT22;5277;48.722;8.736;2024-03-02T04:07:28;2.80;99.90
10459;DHT22;5277;48.722;8.736;2024-03-02T04:09:56;2.90;99.90
10459;DHT22;5277;48.722;8.736;2024-03-02T04:12:24;2.90;99.90
10459;DHT22;5277;48.722;8.736;2024-03-02T04:14:50;3.00;99.90
10459;DHT22;5277;48.722;8.736;2024-03-02T04:17:31;3.00;99.90
10459;DHT22;5277;48.722;8.736;2024-03-02T04:20:03;2.80;99.90
10459;DHT22;5277;48.722;8.736;2024-03-02T04:22:32;2.90;99.90
10459;DHT22;5277;48.722;8.736;2024-03-02T04:24:58;2.80;99.90
10459;DHT22;5277;48.722;8.736;2024-03-02T04:27:26;2.80;99.90
10459;DHT22;5277;48.722;8.736;2024-03-02T04:29:51;2.70;99.90
10459;DHT22;5277;48.722;8.736;2024-03-02T04:32:35;2.60;99.90
10459;DHT22;5277;48.722;8.736;2024-03-02T04:35:01;2.50;99.90
10459;DHT22;5277;48.722;8.736;2024-03-02T04:37:27;2.50;99.90
10459;DHT22;5277;48.722;8.736;2024-03-02T04:39:53;2.50;99.90
10459;DHT22;5277;48.722;8.736;2024-03-02T04:42:19;2.50;99.90
10459;DHT22;5277;48.722;8.736;2024-03-02T04:44:48;2.60;99.90
10459;DHT22;5277;48.722;8.736;2024-03-02T04:47:13;2.70;99.90
10459;DHT22;5277;48.722;8.736;2024-03-02T04:49:39;2.60;99.90
10459;DHT22;5277;48.722;8.736;2024-03-02T04:52:46;2.60;99.90
10459;DHT22;5277;48.722;8.736;2024-03-02T04:55:34;2.70;99.90
10459;DHT22;5277;48.722;8.736;2024-03-02T04:58:46;2.80;99.90
10459;DHT22;5277;48.722;8.736;2024-03-02T05:07:10;2.90;99.90
10459;DHT22;5277;48.722;8.736;2024-03-02T05:09:54;3.00;99.90
10459;DHT22;5277;48.722;8.736;2024-03-02T05:18:40;2.90;99.90
10459;DHT22;5277;48.722;8.736;2024-03-02T05:27:18;2.80;99.90
10459;DHT22;5277;48.722;8.736;2024-03-02T05:30:17;2.80;99.90
10459;DHT22;5277;48.722;8.736;2024-03-02T05:33:03;2.90;99.90
10459;DHT22;5277;48.722;8.736;2024-03-02T05:35:45;2.80;99.90
10459;DHT22;5277;48.722;8.736;2024-03-02T05:38:38;2.90;99.90
10459;DHT22;5277;48.722;8.736;2024-03-02T05:41:38;2.90;99.90
10459;DHT22;5277;48.722;8.736;2024-03-02T05:44:15;2.90;99.90
10459;DHT22;5277;48.722;8.736;2024-03-02T05:46:48;2.90;99.90
10459;DHT22;5277;48.722;8.736;2024-03-02T05:49:50;2.90;99.90
10459;DHT22;5277;48.722;8.736;2024-03-02T05:52:44;2.80;99.90
10459;DHT22;5277;48.722;8.736;2024-03-02T05:58:41;2.80;99.90
10459;DHT22;5277;48.722;8.736;2024-03-02T06:04:52;2.70;99.90
10459;DHT22;5277;48.722;8.736;2024-03-02T06:10:17;2.70;99.90
10459;DHT22;5277;48.722;8.736;2024-03-02T06:12:56;2.70;99.90
10459;DHT22;5277;48.722;8.736;2024-03-02T06:15:30;2.70;99.90
10459;DHT22;5277;48.722;8.736;2024-03-02T06:21:17;2.70;99.90
10459;DHT22;5277;48.722;8.736;2024-03-02T06:23:58;2.80;99.90
10459;DHT22;5277;48.722;8.736;2024-03-02T06:26:26;2.70;99.90
10459;DHT22;5277;48.722;8.736;2024-03-02T06:29:08;2.70;99.90
10459;DHT22;5277;48.722;8.736;2024-03-02T06:31:34;2.60;99.90
10459;DHT22;5277;48.722;8.736;2024-03-02T06:34:04;2.60;99.90
10459;DHT22;5277;48.722;8.736;2024-03-02T06:36:36;2.50;99.90
10459;DHT22;5277;48.722;8.736;2024-03-02T06:39:19;2.50;99.90
10459;DHT22;5277;48.722;8.736;2024-03-02T06:41:54;2.40;99.90
10459;DHT22;5277;48.722;8.736;2024-03-02T06:44:22;2.40;99.90
10459;DHT22;5277;48.722;8.736;2024-03-02T06:46:59;2.40;99.90
10459;DHT22;5277;48.722;8.736;2024-03-02T06:49:27;2.50;99.90
10459;DHT22;5277;48.722;8.736;2024-03-02T06:52:05;2.60;99.90
10459;DHT22;5277;48.722;8.736;2024-03-02T06:55:11;2.70;99.90
10459;DHT22;5277;48.722;8.736;2024-03-02T06:58:05;2.80;99.90
10459;DHT22;5277;48.722;8.736;2024-03-02T07:00:55;2.80;99.90
10459;DHT22;5277;48.722;8.736;2024-03-02T07:03:33;2.80;99.90
10459;DHT22;5277;48.722;8.736;2024-03-02T07:06:30;2.90;99.90
10459;DHT22;5277;48.722;8.736;2024-03-02T07:09:17;2.80;99.90
10459;DHT22;5277;48.722;8.736;2024-03-02T07:11:48;2.80;99.90
10459;DHT22;5277;48.722;8.736;2024-03-02T07:14:39;2.90;99.90
10459;DHT22;5277;48.722;8.736;2024-03-02T07:17:36;2.80;99.90
10459;DHT22;5277;48.722;8.736;2024-03-02T07:20:11;2.80;99.90
10459;DHT22;5277;48.722;8.736;2024-03-02T07:25:34;3.00;99.90
10459;DHT22;5277;48.722;8.736;2024-03-02T07:28:11;3.00;99.90
10459;DHT22;5277;48.722;8.736;2024-03-02T07:31:04;3.20;99.90
10459;DHT22;5277;48.722;8.736;2024-03-02T07:33:44;3.20;99.90
10459;DHT22;5277;48.722;8.736;2024-03-02T07:36:24;3.30;99.90
10459;DHT22;5277;48.722;8.736;2024-03-02T07:39:30;3.30;99.90
10459;DHT22;5277;48.722;8.736;2024-03-02T07:42:04;3.40;99.90
10459;DHT22;5277;48.722;8.736;2024-03-02T07:44:36;3.50;99.90
10459;DHT22;5277;48.722;8.736;2024-03-02T07:47:09;3.60;99.90
10459;DHT22;5277;48.722;8.736;2024-03-02T07:49:44;3.70;99.90
10459;DHT22;5277;48.722;8.736;2024-03-02T07:52:11;3.90;99.90
10459;DHT22;5277;48.722;8.736;2024-03-02T07:54:48;4.00;99.90
10459;DHT22;5277;48.722;8.736;2024-03-02T07:57:32;4.10;99.90
10459;DHT22;5277;48.722;8.736;2024-03-02T08:00:09;4.20;99.90
10459;DHT22;5277;48.722;8.736;2024-03-02T08:02:49;4.40;99.90
10459;DHT22;5277;48.722;8.736;2024-03-02T08:05:21;4.50;99.90
10459;DHT22;5277;48.722;8.736;2024-03-02T08:07:55;4.60;99.90
10459;DHT22;5277;48.722;8.736;2024-03-02T08:10:33;4.90;99.90
10459;DHT22;5277;48.722;8.736;2024-03-02T08:13:38;5.10;99.90
10459;DHT22;5277;48.722;8.736;2024-03-02T08:16:04;5.30;99.90
10459;DHT22;5277;48.722;8.736;2024-03-02T08:18:32;5.50;99.90
10459;DHT22;5277;48.722;8.736;2024-03-02T08:21:00;5.70;99.90
10459;DHT22;5277;48.722;8.736;2024-03-02T08:23:26;5.80;99.90
10459;DHT22;5277;48.722;8.736;2024-03-02T08:25:55;6.00;99.90
10459;DHT22;5277;48.722;8.736;2024-03-02T08:28:36;6.10;99.90
10459;DHT22;5277;48.722;8.736;2024-03-02T08:31:11;6.30;99.90
10459;DHT22;5277;48.722;8.736;2024-03-02T08:33:37;6.40;99.90
10459;DHT22;5277;48.722;8.736;2024-03-02T08:36:03;6.60;99.90
10459;DHT22;5277;48.722;8.736;2024-03-02T08:38:29;6.70;99.90
10459;DHT22;5277;48.722;8.736;2024-03-02T08:40:54;6.80;99.90
10459;DHT22;5277;48.722;8.736;2024-03-02T08:43:20;7.00;99.90
10459;DHT22;5277;48.722;8.736;2024-03-02T08:45:48;7.10;99.90
10459;DHT22;5277;48.722;8.736;2024-03-02T08:48:13;7.20;99.90
10459;DHT22;5277;48.722;8.736;2024-03-02T08:50:39;7.40;99.90
10459;DHT22;5277;48.722;8.736;2024-03-02T08:53:05;7.60;99.90
10459;DHT22;5277;48.722;8.736;2024-03-02T08:55:30;7.70;99.90
10459;DHT22;5277;48.722;8.736;2024-03-02T08:57:56;7.80;99.90
10459;DHT22;5277;48.722;8.736;2024-03-02T09:00:23;8.10;99.90
10459;DHT22;5277;48.722;8.736;2024-03-02T09:02:48;8.20;99.90
10459;DHT22;5277;48.722;8.736;2024-03-02T09:05:14;8.30;99.90
10459;DHT22;5277;48.722;8.736;2024-03-02T09:07:40;8.50;99.90
10459;DHT22;5277;48.722;8.736;2024-03-02T09:10:06;8.70;99.90
10459;DHT22;5277;48.722;8.736;2024-03-02T09:12:32;8.80;99.90
10459;DHT22;5277;48.722;8.736;2024-03-02T09:15:00;8.90;99.90
10459;DHT22;5277;48.722;8.736;2024-03-02T09:17:26;9.10;99.90
10459;DHT22;5277;48.722;8.736;2024-03-02T09:19:51;9.40;99.90
10459;DHT22;5277;48.722;8.736;2024-03-02T09:22:18;9.40;99.90
10459;DHT22;5277;48.722;8.736;2024-03-02T09:24:44;9.50;99.90
10459;DHT22;5277;48.722;8.736;2024-03-02T09:27:10;9.70;99.90
10459;DHT22;5277;48.722;8.736;2024-03-02T09:29:35;9.90;99.90
10459;DHT22;5277;48.722;8.736;2024-03-02T09:32:01;10.00;99.80
10459;DHT22;5277;48.722;8.736;2024-03-02T09:34:27;10.10;99.80
10459;DHT22;5277;48.722;8.736;2024-03-02T09:36:52;10.30;99.90
10459;DHT22;5277;48.722;8.736;2024-03-02T09:39:18;10.40;99.60
10459;DHT22;5277;48.722;8.736;2024-03-02T09:41:44;10.60;99.40
10459;DHT22;5277;48.722;8.736;2024-03-02T09:44:10;10.70;99.20
10459;DHT22;5277;48.722;8.736;2024-03-02T09:46:35;10.80;98.90
10459;DHT22;5277;48.722;8.736;2024-03-02T09:49:02;10.90;98.50
10459;DHT22;5277;48.722;8.736;2024-03-02T09:51:28;11.00;97.80
10459;DHT22;5277;48.722;8.736;2024-03-02T09:53:55;11.20;97.90
10459;DHT22;5277;48.722;8.736;2024-03-02T09:56:23;11.20;97.80
10459;DHT22;5277;48.722;8.736;2024-03-02T09:58:49;11.40;97.30
10459;DHT22;5277;48.722;8.736;2024-03-02T10:01:15;11.40;96.70
10459;DHT22;5277;48.722;8.736;2024-03-02T10:03:40;11.40;96.60
10459;DHT22;5277;48.722;8.736;2024-03-02T10:06:25;11.60;96.50
10459;DHT22;5277;48.722;8.736;2024-03-02T10:08:52;11.70;96.70
10459;DHT22;5277;48.722;8.736;2024-03-02T10:11:35;11.80;96.20
10459;DHT22;5277;48.722;8.736;2024-03-02T10:14:09;11.80;96.60
10459;DHT22;5277;48.722;8.736;2024-03-02T10:16:40;11.90;96.20
10459;DHT22;5277;48.722;8.736;2024-03-02T10:19:19;12.00;96.10
10459;DHT22;5277;48.722;8.736;2024-03-02T10:21:53;12.20;95.90
10459;DHT22;5277;48.722;8.736;2024-03-02T10:24:20;12.20;95.10
10459;DHT22;5277;48.722;8.736;2024-03-02T10:26:47;12.30;94.90
10459;DHT22;5277;48.722;8.736;2024-03-02T10:29:13;12.50;95.00
10459;DHT22;5277;48.722;8.736;2024-03-02T10:31:39;12.60;94.60
10459;DHT22;5277;48.722;8.736;2024-03-02T10:34:06;12.60;94.30
10459;DHT22;5277;48.722;8.736;2024-03-02T10:36:33;12.80;94.40
10459;DHT22;5277;48.722;8.736;2024-03-02T10:39:04;12.80;94.00
10459;DHT22;5277;48.722;8.736;2024-03-02T10:41:35;12.90;94.40
10459;DHT22;5277;48.722;8.736;2024-03-02T10:44:06;13.00;93.60
10459;DHT22;5277;48.722;8.736;2024-03-02T10:46:34;13.10;93.80
10459;DHT22;5277;48.722;8.736;2024-03-02T10:49:01;13.20;93.70
10459;DHT22;5277;48.722;8.736;2024-03-02T10:51:28;13.30;93.50
10459;DHT22;5277;48.722;8.736;2024-03-02T10:53:58;13.30;93.40
10459;DHT22;5277;48.722;8.736;2024-03-02T10:56:32;13.40;93.10
10459;DHT22;5277;48.722;8.736;2024-03-02T11:01:57;13.50;93.00
10459;DHT22;5277;48.722;8.736;2024-03-02T11:04:25;13.60;92.40
10459;DHT22;5277;48.722;8.736;2024-03-02T11:06:52;13.60;92.50
10459;DHT22;5277;48.722;8.736;2024-03-02T11:09:21;13.70;92.20
10459;DHT22;5277;48.722;8.736;2024-03-02T11:12:00;13.80;92.40
10459;DHT22;5277;48.722;8.736;2024-03-02T11:14:32;13.90;91.90
10459;DHT22;5277;48.722;8.736;2024-03-02T11:17:04;14.00;91.80
10459;DHT22;5277;48.722;8.736;2024-03-02T11:19:31;14.10;91.10
10459;DHT22;5277;48.722;8.736;2024-03-02T11:21:57;14.10;90.80
10459;DHT22;5277;48.722;8.736;2024-03-02T11:27:11;14.30;90.30
10459;DHT22;5277;48.722;8.736;2024-03-02T11:32:29;14.40;90.20
10459;DHT22;5277;48.722;8.736;2024-03-02T11:34:55;14.40;90.50
10459;DHT22;5277;48.722;8.736;2024-03-02T11:37:33;14.50;90.30
10459;DHT22;5277;48.722;8.736;2024-03-02T11:40:00;14.50;89.80
10459;DHT22;5277;48.722;8.736;2024-03-02T11:42:33;14.60;88.40
10459;DHT22;5277;48.722;8.736;2024-03-02T11:44:59;14.70;88.80
10459;DHT22;5277;48.722;8.736;2024-03-02T11:47:33;14.70;89.40
10459;DHT22;5277;48.722;8.736;2024-03-02T11:50:08;14.70;89.30
10459;DHT22;5277;48.722;8.736;2024-03-02T11:52:38;14.80;89.50
10459;DHT22;5277;48.722;8.736;2024-03-02T11:55:10;14.80;88.60
10459;DHT22;5277;48.722;8.736;2024-03-02T12:00:28;15.00;86.20
10459;DHT22;5277;48.722;8.736;2024-03-02T12:03:28;15.00;86.70
10459;DHT22;5277;48.722;8.736;2024-03-02T12:06:02;15.00;85.90
10459;DHT22;5277;48.722;8.736;2024-03-02T12:08:36;15.10;84.80
10459;DHT22;5277;48.722;8.736;2024-03-02T12:11:02;15.10;84.00
10459;DHT22;5277;48.722;8.736;2024-03-02T12:13:28;15.10;83.80
10459;DHT22;5277;48.722;8.736;2024-03-02T12:15:59;15.20;84.00
10459;DHT22;5277;48.722;8.736;2024-03-02T12:18:32;15.20;83.20
10459;DHT22;5277;48.722;8.736;2024-03-02T12:21:05;15.20;83.80
10459;DHT22;5277;48.722;8.736;2024-03-02T12:23:42;15.30;83.70
10459;DHT22;5277;48.722;8.736;2024-03-02T12:26:15;15.40;83.40
10459;DHT22;5277;48.722;8.736;2024-03-02T12:28:49;15.50;83.90
10459;DHT22;5277;48.722;8.736;2024-03-02T12:31:23;15.50;83.80
10459;DHT22;5277;48.722;8.736;2024-03-02T12:33:49;15.60;82.40
10459;DHT22;5277;48.722;8.736;2024-03-02T12:36:38;15.50;81.80
10459;DHT22;5277;48.722;8.736;2024-03-02T12:39:04;15.50;82.00
10459;DHT22;5277;48.722;8.736;2024-03-02T12:41:32;15.50;82.90
10459;DHT22;5277;48.722;8.736;2024-03-02T12:44:01;15.50;82.60
10459;DHT22;5277;48.722;8.736;2024-03-02T12:46:36;15.60;82.60
10459;DHT22;5277;48.722;8.736;2024-03-02T12:49:09;15.60;82.60
10459;DHT22;5277;48.722;8.736;2024-03-02T12:51:40;15.60;82.20
10459;DHT22;5277;48.722;8.736;2024-03-02T12:54:18;15.60;82.50
10459;DHT22;5277;48.722;8.736;2024-03-02T12:56:46;15.60;82.00
10459;DHT22;5277;48.722;8.736;2024-03-02T12:59:23;15.70;84.60
10459;DHT22;5277;48.722;8.736;2024-03-02T13:01:55;15.80;82.80
10459;DHT22;5277;48.722;8.736;2024-03-02T13:04:27;15.80;81.80
10459;DHT22;5277;48.722;8.736;2024-03-02T13:06:55;15.80;82.40
10459;DHT22;5277;48.722;8.736;2024-03-02T13:09:31;15.90;83.20
10459;DHT22;5277;48.722;8.736;2024-03-02T13:11:58;15.90;80.50
10459;DHT22;5277;48.722;8.736;2024-03-02T13:14:32;16.00;80.10
10459;DHT22;5277;48.722;8.736;2024-03-02T13:16:58;16.30;81.00
10459;DHT22;5277;48.722;8.736;2024-03-02T13:19:25;16.70;79.70
10459;DHT22;5277;48.722;8.736;2024-03-02T13:21:51;17.10;80.30
10459;DHT22;5277;48.722;8.736;2024-03-02T13:24:16;17.80;78.20
10459;DHT22;5277;48.722;8.736;2024-03-02T13:26:42;18.10;75.20
10459;DHT22;5277;48.722;8.736;2024-03-02T13:29:08;18.20;74.60
10459;DHT22;5277;48.722;8.736;2024-03-02T13:31:34;18.30;75.30
10459;DHT22;5277;48.722;8.736;2024-03-02T13:34:00;18.40;73.90
10459;DHT22;5277;48.722;8.736;2024-03-02T13:36:25;18.10;73.30
10459;DHT22;5277;48.722;8.736;2024-03-02T13:38:51;17.90;74.90
10459;DHT22;5277;48.722;8.736;2024-03-02T13:41:17;17.70;74.80
10459;DHT22;5277;48.722;8.736;2024-03-02T13:43:42;17.50;76.50
10459;DHT22;5277;48.722;8.736;2024-03-02T13:46:10;17.20;76.70
10459;DHT22;5277;48.722;8.736;2024-03-02T13:48:36;17.10;76.20
10459;DHT22;5277;48.722;8.736;2024-03-02T13:51:02;16.80;75.00
10459;DHT22;5277;48.722;8.736;2024-03-02T13:53:27;16.60;76.80
10459;DHT22;5277;48.722;8.736;2024-03-02T13:55:53;16.40;77.20
10459;DHT22;5277;48.722;8.736;2024-03-02T13:58:19;16.30;76.80
10459;DHT22;5277;48.722;8.736;2024-03-02T14:00:49;16.10;77.20
10459;DHT22;5277;48.722;8.736;2024-03-02T14:03:30;15.90;76.30
10459;DHT22;5277;48.722;8.736;2024-03-02T14:05:59;15.90;78.00
10459;DHT22;5277;48.722;8.736;2024-03-02T14:08:28;15.80;80.60
10459;DHT22;5277;48.722;8.736;2024-03-02T14:11:01;15.70;80.40
10459;DHT22;5277;48.722;8.736;2024-03-02T14:13:29;15.60;80.20
10459;DHT22;5277;48.722;8.736;2024-03-02T14:15:58;15.40;82.90
10459;DHT22;5277;48.722;8.736;2024-03-02T14:18:29;15.30;81.10
10459;DHT22;5277;48.722;8.736;2024-03-02T14:20:55;15.20;81.00
10459;DHT22;5277;48.722;8.736;2024-03-02T14:23:33;15.20;84.00
10459;DHT22;5277;48.722;8.736;2024-03-02T14:26:01;15.10;83.90
10459;DHT22;5277;48.722;8.736;2024-03-02T14:28:37;14.90;86.20
10459;DHT22;5277;48.722;8.736;2024-03-02T14:31:06;14.80;88.80
10459;DHT22;5277;48.722;8.736;2024-03-02T14:33:37;14.70;90.10
10459;DHT22;5277;48.722;8.736;2024-03-02T14:36:03;14.50;90.30
10459;DHT22;5277;48.722;8.736;2024-03-02T14:38:30;14.40;90.60
10459;DHT22;5277;48.722;8.736;2024-03-02T14:40:56;14.10;90.50
10459;DHT22;5277;48.722;8.736;2024-03-02T14:43:24;14.00;91.00
10459;DHT22;5277;48.722;8.736;2024-03-02T14:45:50;14.00;90.80
10459;DHT22;5277;48.722;8.736;2024-03-02T14:48:16;13.90;90.60
10459;DHT22;5277;48.722;8.736;2024-03-02T14:50:45;13.90;91.30
10459;DHT22;5277;48.722;8.736;2024-03-02T14:53:14;13.90;91.90
10459;DHT22;5277;48.722;8.736;2024-03-02T14:55:45;13.70;91.00
10459;DHT22;5277;48.722;8.736;2024-03-02T14:58:11;13.60;91.90
10459;DHT22;5277;48.722;8.736;2024-03-02T15:00:39;13.50;92.30
10459;DHT22;5277;48.722;8.736;2024-03-02T15:03:08;13.40;92.80
10459;DHT22;5277;48.722;8.736;2024-03-02T15:05:35;13.40;93.20
10459;DHT22;5277;48.722;8.736;2024-03-02T15:08:14;13.30;92.70
10459;DHT22;5277;48.722;8.736;2024-03-02T15:10:44;13.20;92.60
10459;DHT22;5277;48.722;8.736;2024-03-02T15:13:10;13.10;93.30
10459;DHT22;5277;48.722;8.736;2024-03-02T15:15:36;13.00;93.80
10459;DHT22;5277;48.722;8.736;2024-03-02T15:18:05;12.80;93.80
10459;DHT22;5277;48.722;8.736;2024-03-02T15:20:42;12.80;93.40
10459;DHT22;5277;48.722;8.736;2024-03-02T15:23:13;12.60;94.00
10459;DHT22;5277;48.722;8.736;2024-03-02T15:25:39;12.60;94.10
10459;DHT22;5277;48.722;8.736;2024-03-02T15:28:05;12.60;94.80
10459;DHT22;5277;48.722;8.736;2024-03-02T15:30:31;12.60;95.60
10459;DHT22;5277;48.722;8.736;2024-03-02T15:33:01;12.50;95.80
10459;DHT22;5277;48.722;8.736;2024-03-02T15:35:33;12.50;95.90
10459;DHT22;5277;48.722;8.736;2024-03-02T15:38:01;12.60;96.20
10459;DHT22;5277;48.722;8.736;2024-03-02T15:40:27;12.50;96.20
10459;DHT22;5277;48.722;8.736;2024-03-02T15:42:53;12.60;96.30
10459;DHT22;5277;48.722;8.736;2024-03-02T15:45:19;12.60;96.70
10459;DHT22;5277;48.722;8.736;2024-03-02T15:47:50;12.60;97.00
10459;DHT22;5277;48.722;8.736;2024-03-02T15:50:16;12.60;97.50
10459;DHT22;5277;48.722;8.736;2024-03-02T15:52:41;12.70;97.60
10459;DHT22;5277;48.722;8.736;2024-03-02T15:55:08;12.70;97.40
10459;DHT22;5277;48.722;8.736;2024-03-02T15:57:34;12.70;96.80
10459;DHT22;5277;48.722;8.736;2024-03-02T16:00:00;12.70;96.80
10459;DHT22;5277;48.722;8.736;2024-03-02T16:02:26;12.70;97.20
10459;DHT22;5277;48.722;8.736;2024-03-02T16:04:51;12.70;97.30
10459;DHT22;5277;48.722;8.736;2024-03-02T16:07:27;12.70;97.50
10459;DHT22;5277;48.722;8.736;2024-03-02T16:09:52;12.60;97.40
10459;DHT22;5277;48.722;8.736;2024-03-02T16:12:18;12.60;97.60
10459;DHT22;5277;48.722;8.736;2024-03-02T16:14:50;12.50;97.50
10459;DHT22;5277;48.722;8.736;2024-03-02T16:17:17;12.50;97.80
10459;DHT22;5277;48.722;8.736;2024-03-02T16:19:45;12.40;97.50
10459;DHT22;5277;48.722;8.736;2024-03-02T16:22:12;12.40;97.60
10459;DHT22;5277;48.722;8.736;2024-03-02T16:24:41;12.50;97.20
10459;DHT22;5277;48.722;8.736;2024-03-02T16:27:09;12.40;97.00
10459;DHT22;5277;48.722;8.736;2024-03-02T16:29:35;12.40;97.10
10459;DHT22;5277;48.722;8.736;2024-03-02T16:32:00;12.20;97.70
10459;DHT22;5277;48.722;8.736;2024-03-02T16:34:29;12.20;97.60
10459;DHT22;5277;48.722;8.736;2024-03-02T16:37:01;12.20;97.70
10459;DHT22;5277;48.722;8.736;2024-03-02T16:39:28;12.10;98.00
10459;DHT22;5277;48.722;8.736;2024-03-02T16:41:54;11.90;97.90
10459;DHT22;5277;48.722;8.736;2024-03-02T16:44:19;11.90;98.10
10459;DHT22;5277;48.722;8.736;2024-03-02T16:46:49;11.80;98.10
10459;DHT22;5277;48.722;8.736;2024-03-02T16:49:14;11.80;98.10
10459;DHT22;5277;48.722;8.736;2024-03-02T16:51:43;11.70;98.10
10459;DHT22;5277;48.722;8.736;2024-03-02T16:54:10;11.60;98.10
10459;DHT22;5277;48.722;8.736;2024-03-02T16:56:44;11.60;98.40
10459;DHT22;5277;48.722;8.736;2024-03-02T16:59:10;11.50;98.50
10459;DHT22;5277;48.722;8.736;2024-03-02T17:01:36;11.50;98.60
10459;DHT22;5277;48.722;8.736;2024-03-02T17:04:02;11.40;98.80
10459;DHT22;5277;48.722;8.736;2024-03-02T17:06:29;11.30;98.90
10459;DHT22;5277;48.722;8.736;2024-03-02T17:08:56;11.30;99.00
10459;DHT22;5277;48.722;8.736;2024-03-02T17:11:21;11.30;99.20
10459;DHT22;5277;48.722;8.736;2024-03-02T17:13:47;11.10;99.50
10459;DHT22;5277;48.722;8.736;2024-03-02T17:16:13;11.10;99.60
10459;DHT22;5277;48.722;8.736;2024-03-02T17:18:42;11.10;99.90